createdAt,value
2019-04-26T00:00:54.432Z,30.70
2019-04-26T00:03:29.925Z,30.70
2019-04-26T00:06:01.657Z,30.80
2019-04-26T00:08:32.514Z,30.80
2019-04-26T00:11:04.690Z,30.90
2019-04-26T00:13:37.124Z,30.90
2019-04-26T00:16:16.787Z,30.90
2019-04-26T00:18:47.726Z,30.90
2019-04-26T00:21:18.558Z,30.90
2019-04-26T00:23:49.781Z,31.00
2019-04-26T00:26:21.808Z,31.00
2019-04-26T00:28:52.660Z,31.00
2019-04-26T00:31:23.577Z,31.10
2019-04-26T00:34:15.397Z,31.00
2019-04-26T00:36:46.302Z,31.00
2019-04-26T00:39:18.140Z,31.00
2019-04-26T00:41:49.248Z,31.00
2019-04-26T00:44:20.913Z,31.00
2019-04-26T00:46:54.548Z,31.00
2019-04-26T00:49:25.976Z,31.00
2019-04-26T00:51:56.940Z,31.10
2019-04-26T00:54:28.353Z,31.00
2019-04-26T00:56:59.530Z,31.10
2019-04-26T00:59:31.198Z,31.20
2019-04-26T01:02:03.498Z,31.20
2019-04-26T01:04:34.197Z,31.20
2019-04-26T01:07:05.735Z,31.30
2019-04-26T01:09:36.610Z,31.40
2019-04-26T01:12:07.375Z,31.40
2019-04-26T01:14:37.976Z,31.30
2019-04-26T01:17:08.795Z,31.40
2019-04-26T01:19:41.916Z,31.40
2019-04-26T01:22:15.385Z,31.40
2019-04-26T01:24:48.714Z,31.40
2019-04-26T01:27:23.332Z,31.50
2019-04-26T01:29:56.691Z,31.50
2019-04-26T01:32:28.924Z,31.50
2019-04-26T01:34:59.879Z,31.60
2019-04-26T01:37:31.582Z,31.60
2019-04-26T01:40:06.559Z,31.60
2019-04-26T01:42:41.065Z,31.60
2019-04-26T01:45:20.188Z,31.60
2019-04-26T01:48:11.895Z,31.60
2019-04-26T01:50:42.727Z,31.60
2019-04-26T01:53:13.551Z,31.80
2019-04-26T01:55:44.388Z,31.80
2019-04-26T01:58:15.407Z,31.80
2019-04-26T02:00:56.702Z,31.80
2019-04-26T02:03:29.793Z,31.70
2019-04-26T02:06:00.935Z,31.90
2019-04-26T02:08:32.491Z,31.90
2019-04-26T02:11:03.580Z,31.90
2019-04-26T02:13:34.369Z,32.00
2019-04-26T02:16:05.028Z,32.00
2019-04-26T02:18:36.115Z,32.10
2019-04-26T02:21:27.974Z,32.10
2019-04-26T02:24:06.570Z,32.20
2019-04-26T02:26:42.258Z,32.20
2019-04-26T02:29:21.743Z,32.20
2019-04-26T02:31:54.750Z,32.30
2019-04-26T02:34:28.980Z,32.30
2019-04-26T02:37:01.084Z,32.50
2019-04-26T02:39:35.398Z,32.50
2019-04-26T02:42:09.135Z,32.60
2019-04-26T02:44:59.931Z,32.60
2019-04-26T02:47:39.388Z,32.70
2019-04-26T02:50:19.541Z,32.70
2019-04-26T02:52:58.438Z,32.80
2019-04-26T02:55:50.135Z,32.80
2019-04-26T02:58:23.029Z,32.90
2019-04-26T03:00:55.075Z,32.80
2019-04-26T03:03:29.802Z,32.80
2019-04-26T03:06:00.875Z,32.90
2019-04-26T03:08:39.300Z,33.00
2019-04-26T03:11:16.882Z,33.00
2019-04-26T03:13:48.772Z,33.10
2019-04-26T03:16:36.803Z,33.10
2019-04-26T03:19:17.132Z,33.20
2019-04-26T03:22:25.321Z,33.20
2019-04-26T03:25:04.302Z,33.20
2019-04-26T03:27:46.811Z,33.40
2019-04-26T03:30:23.788Z,33.40
2019-04-26T03:33:03.221Z,33.40
2019-04-26T03:35:57.224Z,33.50
2019-04-26T03:38:36.188Z,33.60
2019-04-26T03:41:27.566Z,33.50
2019-04-26T03:44:00.857Z,33.50
2019-04-26T03:46:35.502Z,33.50
2019-04-26T03:49:26.700Z,33.60
2019-04-26T03:52:14.786Z,33.60
2019-04-26T03:54:48.160Z,33.60
2019-04-26T03:57:31.316Z,33.70
2019-04-26T04:00:11.959Z,33.80
2019-04-26T04:05:41.958Z,33.80
2019-04-26T04:08:15.115Z,33.90
2019-04-26T04:10:57.639Z,33.90
2019-04-26T04:13:46.712Z,34.00
2019-04-26T04:16:42.870Z,34.00
2019-04-26T04:19:22.407Z,34.10
2019-04-26T04:22:19.726Z,34.10
2019-04-26T04:24:53.022Z,34.20
2019-04-26T04:27:35.457Z,34.20
2019-04-26T04:30:29.539Z,34.30
2019-04-26T04:33:27.436Z,34.30
2019-04-26T04:36:00.549Z,34.30
2019-04-26T04:38:53.360Z,34.30
2019-04-26T04:41:41.069Z,34.30
2019-04-26T04:44:21.809Z,34.30
2019-04-26T04:47:30.686Z,34.40
2019-04-26T04:50:26.813Z,34.40
2019-04-26T04:53:08.911Z,34.50
2019-04-26T04:56:14.929Z,34.50
2019-04-26T04:58:56.913Z,34.50
2019-04-26T05:01:53.974Z,34.60
2019-04-26T05:04:28.368Z,34.70
2019-04-26T05:07:29.458Z,34.80
2019-04-26T05:10:11.223Z,34.90
2019-04-26T05:12:50.203Z,34.90
2019-04-26T05:15:37.005Z,34.90
2019-04-26T05:18:25.661Z,34.90
2019-04-26T05:20:58.780Z,34.90
2019-04-26T05:23:32.867Z,34.90
2019-04-26T05:26:53.570Z,35.00
2019-04-26T05:29:49.927Z,35.00
2019-04-26T05:32:29.768Z,35.10
2019-04-26T05:35:26.828Z,35.00
2019-04-26T05:38:17.951Z,35.10
2019-04-26T05:41:02.038Z,35.00
2019-04-26T05:43:42.600Z,35.00
2019-04-26T05:46:26.450Z,35.00
2019-04-26T05:49:22.195Z,35.00
2019-04-26T05:52:06.073Z,35.00
2019-04-26T05:54:52.246Z,35.00
2019-04-26T05:57:41.914Z,35.00
2019-04-26T06:00:18.847Z,35.10
2019-04-26T06:03:05.246Z,35.10
2019-04-26T06:06:05.367Z,35.10
2019-04-26T06:09:15.466Z,35.10
2019-04-26T06:11:56.444Z,35.10
2019-04-26T06:15:07.312Z,35.10
2019-04-26T06:17:42.054Z,35.00
2019-04-26T06:20:24.586Z,35.00
2019-04-26T06:23:06.106Z,35.10
2019-04-26T06:25:55.602Z,35.10
2019-04-26T06:28:27.703Z,35.20
2019-04-26T06:31:01.383Z,35.20
2019-04-26T06:33:46.788Z,35.20
2019-04-26T06:36:22.063Z,35.20
2019-04-26T06:39:04.114Z,35.30
2019-04-26T06:42:11.086Z,35.40
2019-04-26T06:45:23.760Z,35.30
2019-04-26T06:48:07.130Z,35.30
2019-04-26T06:50:41.799Z,35.30
2019-04-26T06:53:39.508Z,35.20
2019-04-26T06:56:14.236Z,35.20
2019-04-26T06:59:19.656Z,35.40
2019-04-26T07:01:59.172Z,35.50
2019-04-26T07:04:38.971Z,35.40
2019-04-26T07:07:30.403Z,35.50
2019-04-26T07:10:04.356Z,35.60
2019-04-26T07:12:53.736Z,35.50
2019-04-26T07:15:45.308Z,35.60
2019-04-26T07:18:31.093Z,35.60
2019-04-26T07:21:06.967Z,35.60
2019-04-26T07:23:59.569Z,35.60
2019-04-26T07:26:52.095Z,35.60
2019-04-26T07:29:49.618Z,35.60
2019-04-26T07:32:51.804Z,35.70
2019-04-26T07:35:45.917Z,35.80
2019-04-26T07:38:54.470Z,35.90
2019-04-26T07:41:45.520Z,35.90
2019-04-26T07:44:38.143Z,35.90
2019-04-26T07:47:29.374Z,35.90
2019-04-26T07:50:19.297Z,35.90
2019-04-26T07:53:24.447Z,35.90
2019-04-26T07:56:13.519Z,35.90
2019-04-26T07:58:55.640Z,35.90
2019-04-26T08:01:36.470Z,36.00
2019-04-26T08:04:11.529Z,35.90
2019-04-26T08:06:52.503Z,36.00
2019-04-26T08:09:27.460Z,36.00
2019-04-26T08:12:06.487Z,36.00
2019-04-26T08:14:43.702Z,36.10
2019-04-26T08:17:27.375Z,36.00
2019-04-26T08:20:42.381Z,35.90
2019-04-26T08:23:37.319Z,36.00
2019-04-26T08:25:50.613Z,36.00
2019-04-26T08:28:23.631Z,35.90
2019-04-26T08:30:56.732Z,36.00
2019-04-26T08:33:31.493Z,35.90
2019-04-26T08:36:04.811Z,35.80
2019-04-26T08:38:37.754Z,35.60
2019-04-26T08:41:09.907Z,35.50
2019-04-26T08:43:43.146Z,35.50
2019-04-26T08:46:20.305Z,35.40
2019-04-26T08:48:53.067Z,35.20
2019-04-26T08:51:26.043Z,35.20
2019-04-26T08:53:59.144Z,35.10
2019-04-26T08:56:35.499Z,35.00
2019-04-26T08:59:27.116Z,34.90
2019-04-26T09:02:10.439Z,34.80
2019-04-26T09:04:57.431Z,34.80
2019-04-26T09:07:36.375Z,34.70
2019-04-26T09:10:11.327Z,34.60
2019-04-26T09:12:43.844Z,34.50
2019-04-26T09:15:17.069Z,34.50
2019-04-26T09:17:47.711Z,34.40
2019-04-26T09:20:28.216Z,34.30
2019-04-26T09:22:56.202Z,34.30
2019-04-26T09:25:39.327Z,34.30
2019-04-26T09:28:21.114Z,34.30
2019-04-26T09:30:56.133Z,34.30
2019-04-26T09:33:36.048Z,34.20
2019-04-26T09:36:06.963Z,34.00
2019-04-26T09:38:37.932Z,34.10
2019-04-26T09:41:08.620Z,34.00
2019-04-26T09:43:41.085Z,34.00
2019-04-26T09:46:38.532Z,33.90
2019-04-26T09:49:10.968Z,34.00
2019-04-26T09:51:42.379Z,34.00
2019-04-26T09:54:15.322Z,34.00
2019-04-26T09:56:45.626Z,33.90
2019-04-26T09:59:16.418Z,33.80
2019-04-26T10:01:47.147Z,33.80
2019-04-26T10:04:18.036Z,33.80
2019-04-26T10:06:48.726Z,33.80
2019-04-26T10:09:21.267Z,33.70
2019-04-26T10:11:56.607Z,33.70
2019-04-26T10:14:38.143Z,33.70
2019-04-26T10:17:11.562Z,33.70
2019-04-26T10:19:55.994Z,33.70
2019-04-26T10:22:28.329Z,33.70
2019-04-26T10:25:02.508Z,33.70
2019-04-26T10:30:11.456Z,33.50
2019-04-26T10:32:42.280Z,33.60
2019-04-26T10:35:13.189Z,33.60
2019-04-26T10:37:47.660Z,33.50
2019-04-26T10:40:16.195Z,33.50
2019-04-26T10:42:49.438Z,33.60
2019-04-26T10:45:20.893Z,33.60
2019-04-26T10:47:51.684Z,33.60
2019-04-26T10:50:28.680Z,33.50
2019-04-26T10:53:00.878Z,33.40
2019-04-26T10:55:39.307Z,33.30
2019-04-26T10:58:11.440Z,33.40
2019-04-26T11:00:44.135Z,33.30
2019-04-26T11:03:15.180Z,33.30
2019-04-26T11:05:49.244Z,33.20
2019-04-26T11:08:18.172Z,33.20
2019-04-26T11:11:09.015Z,33.20
2019-04-26T11:13:40.015Z,33.20
2019-04-26T11:16:10.780Z,33.20
2019-04-26T11:18:41.479Z,33.10
2019-04-26T11:21:12.396Z,33.10
2019-04-26T11:24:02.251Z,33.00
2019-04-26T11:26:35.969Z,33.10
2019-04-26T11:29:07.030Z,33.10
2019-04-26T11:31:37.789Z,33.00
2019-04-26T11:34:08.261Z,33.00
2019-04-26T11:36:41.693Z,32.90
2019-04-26T11:39:13.235Z,32.90
2019-04-26T11:42:04.168Z,32.80
2019-04-26T11:44:34.731Z,32.80
2019-04-26T11:47:07.810Z,32.70
2019-04-26T11:49:41.449Z,32.90
2019-04-26T11:52:32.212Z,32.90
2019-04-26T11:55:03.824Z,32.70
2019-04-26T11:57:34.727Z,32.70
2019-04-26T12:00:06.961Z,32.80
2019-04-26T12:02:39.676Z,32.70
2019-04-26T12:05:28.899Z,32.70
2019-04-26T12:08:01.231Z,32.70
2019-04-26T12:10:32.249Z,32.60
2019-04-26T12:13:05.858Z,32.50
2019-04-26T12:15:38.996Z,32.40
2019-04-26T12:18:09.898Z,32.50
2019-04-26T12:20:40.059Z,32.50
2019-04-26T12:23:13.540Z,32.60
2019-04-26T12:25:43.661Z,32.50
2019-04-26T12:28:15.281Z,32.40
2019-04-26T12:30:45.940Z,32.30
2019-04-26T12:36:09.492Z,32.20
2019-04-26T12:38:38.332Z,32.20
2019-04-26T12:41:11.383Z,32.20
2019-04-26T12:43:40.715Z,32.10
2019-04-26T12:46:22.541Z,32.10
2019-04-26T12:48:51.407Z,32.10
2019-04-26T12:51:22.212Z,32.10
2019-04-26T12:53:53.002Z,32.10
2019-04-26T12:56:26.669Z,32.10
2019-04-26T12:58:55.843Z,32.10
2019-04-26T13:01:26.480Z,32.00
2019-04-26T13:04:07.351Z,32.10
2019-04-26T13:06:39.823Z,32.10
2019-04-26T13:09:21.819Z,32.10
2019-04-26T13:11:59.621Z,32.10
2019-04-26T13:17:51.627Z,32.10
2019-04-26T13:20:24.258Z,32.10
2019-04-26T13:22:55.871Z,32.00
2019-04-26T13:25:30.448Z,32.00
2019-04-26T13:27:59.038Z,32.00
2019-04-26T13:30:32.926Z,32.00
2019-04-26T13:33:02.185Z,32.00
2019-04-26T13:35:32.892Z,31.90
2019-04-26T13:38:05.145Z,31.90
2019-04-26T13:40:35.959Z,32.00
2019-04-26T13:43:07.905Z,31.90
2019-04-26T13:45:40.147Z,31.90
2019-04-26T13:48:49.392Z,31.90
2019-04-26T13:51:21.487Z,31.90
2019-04-26T13:53:54.282Z,31.90
2019-04-26T13:56:43.581Z,32.00
2019-04-26T13:59:14.521Z,32.00
2019-04-26T14:01:45.145Z,31.90
2019-04-26T14:04:15.712Z,31.90
2019-04-26T14:06:46.356Z,31.90
2019-04-26T14:09:16.892Z,31.90
2019-04-26T14:11:47.619Z,31.90
2019-04-26T14:14:18.247Z,31.90
2019-04-26T14:16:51.997Z,31.90
2019-04-26T14:19:21.566Z,32.00
2019-04-26T14:21:52.890Z,32.00
2019-04-26T14:24:25.217Z,32.00
2019-04-26T14:26:57.602Z,32.00
2019-04-26T14:29:32.120Z,32.00
2019-04-26T14:32:01.176Z,31.90
2019-04-26T14:34:31.872Z,32.00
2019-04-26T14:37:06.752Z,32.00
2019-04-26T14:39:49.550Z,31.90
2019-04-26T14:42:07.766Z,32.00
2019-04-26T14:44:48.926Z,31.90
2019-04-26T14:47:14.734Z,31.90
2019-04-26T14:49:43.199Z,32.00
2019-04-26T14:52:14.404Z,32.00
2019-04-26T14:54:47.546Z,31.90
2019-04-26T14:57:25.790Z,31.80
2019-04-26T14:59:52.752Z,31.70
2019-04-26T15:02:47.158Z,31.70
2019-04-26T15:05:22.991Z,31.80
2019-04-26T15:07:53.922Z,31.80
2019-04-26T15:10:26.091Z,31.70
2019-04-26T15:13:11.491Z,31.70
2019-04-26T15:15:32.110Z,31.70
2019-04-26T15:18:02.869Z,31.70
2019-04-26T15:20:33.706Z,31.70
2019-04-26T15:23:04.464Z,31.80
2019-04-26T15:25:36.782Z,31.80
2019-04-26T15:28:11.999Z,31.80
2019-04-26T15:30:46.283Z,31.80
2019-04-26T15:33:13.843Z,31.70
2019-04-26T15:35:45.132Z,31.70
2019-04-26T15:38:15.847Z,31.70
2019-04-26T15:41:04.438Z,31.80
2019-04-26T15:46:50.245Z,31.80
2019-04-26T15:49:29.769Z,31.90
2019-04-26T15:52:00.843Z,31.70
2019-04-26T15:54:32.386Z,31.70
2019-04-26T15:57:06.253Z,31.70
2019-04-26T15:59:35.672Z,31.70
2019-04-26T16:02:06.444Z,31.70
2019-04-26T16:04:37.181Z,31.70
2019-04-26T16:07:08.039Z,31.70
2019-04-26T16:09:40.071Z,31.60
2019-04-26T16:12:10.859Z,31.60
2019-04-26T16:14:42.242Z,31.60
2019-04-26T16:17:13.006Z,31.50
2019-04-26T16:19:43.678Z,31.60
2019-04-26T16:22:14.622Z,31.60
2019-04-26T16:24:45.316Z,31.60
2019-04-26T16:27:16.024Z,31.50
2019-04-26T16:30:00.675Z,31.50
2019-04-26T16:32:47.317Z,31.60
2019-04-26T16:35:18.159Z,31.60
2019-04-26T16:37:51.818Z,31.60
2019-04-26T16:40:25.698Z,31.50
2019-04-26T16:42:57.072Z,31.50
2019-04-26T16:45:26.915Z,31.50
2019-04-26T16:47:57.480Z,31.60
2019-04-26T16:50:31.590Z,31.60
2019-04-26T16:53:00.503Z,31.50
2019-04-26T16:55:38.052Z,31.50
2019-04-26T16:58:04.449Z,31.60
2019-04-26T17:00:50.254Z,31.70
2019-04-26T17:03:08.132Z,31.80
2019-04-26T17:05:47.502Z,31.70
2019-04-26T17:08:12.821Z,31.70
2019-04-26T17:10:43.455Z,31.70
2019-04-26T17:13:14.447Z,31.70
2019-04-26T17:15:46.507Z,31.60
2019-04-26T17:18:19.401Z,31.50
2019-04-26T17:20:49.465Z,31.60
2019-04-26T17:23:37.976Z,31.50
2019-04-26T17:26:29.344Z,31.50
2019-04-26T17:29:02.270Z,31.40
2019-04-26T17:31:33.623Z,31.40
2019-04-26T17:34:05.265Z,31.40
2019-04-26T17:36:36.781Z,31.50
2019-04-26T17:39:11.048Z,31.40
2019-04-26T17:41:43.262Z,31.40
2019-04-26T17:44:14.180Z,31.40
2019-04-26T17:46:48.974Z,31.40
2019-04-26T17:49:21.454Z,31.50
2019-04-26T17:51:53.148Z,31.50
2019-04-26T17:54:41.387Z,31.40
2019-04-26T17:56:55.123Z,31.50
2019-04-26T17:59:33.349Z,31.40
2019-04-26T18:02:01.184Z,31.40
2019-04-26T18:04:36.141Z,31.50
2019-04-26T18:07:10.910Z,31.50
2019-04-26T18:09:44.002Z,31.50
2019-04-26T18:12:07.436Z,31.50
2019-04-26T18:14:37.948Z,31.50
2019-04-26T18:17:10.261Z,31.40
2019-04-26T18:19:42.107Z,31.40
2019-04-26T18:22:14.709Z,31.50
2019-04-26T18:24:45.953Z,31.50
2019-04-26T18:27:16.756Z,31.40
2019-04-26T18:29:47.450Z,31.40
2019-04-26T18:32:18.341Z,31.50
2019-04-26T18:34:49.039Z,31.40
2019-04-26T18:37:20.265Z,31.40
2019-04-26T18:39:51.146Z,31.40
2019-04-26T18:42:21.833Z,31.40
2019-04-26T18:44:53.980Z,31.40
2019-04-26T18:47:29.330Z,31.40
2019-04-26T18:50:00.105Z,31.30
2019-04-26T18:52:33.034Z,31.30
2019-04-26T18:55:05.752Z,31.40
2019-04-26T18:57:36.859Z,31.30
2019-04-26T19:00:10.258Z,31.30
2019-04-26T19:02:42.829Z,31.30
2019-04-26T19:05:15.592Z,31.30
2019-04-26T19:07:46.203Z,31.30
2019-04-26T19:10:18.088Z,31.30
2019-04-26T19:12:49.955Z,31.30
2019-04-26T19:15:41.641Z,31.20
2019-04-26T19:18:22.032Z,31.20
2019-04-26T19:21:06.921Z,31.40
2019-04-26T19:23:37.705Z,31.30
2019-04-26T19:26:09.478Z,31.40
2019-04-26T19:28:43.131Z,31.40
2019-04-26T19:31:12.932Z,31.30
2019-04-26T19:33:43.616Z,31.30
2019-04-26T19:36:17.772Z,31.30
2019-04-26T19:38:49.799Z,31.30
2019-04-26T19:41:21.545Z,31.20
2019-04-26T19:43:52.141Z,31.20
2019-04-26T19:46:25.356Z,31.10
2019-04-26T19:49:14.480Z,31.10
2019-04-26T19:52:03.819Z,31.10
2019-04-26T19:54:41.793Z,31.10
2019-04-26T19:57:26.454Z,31.00
2019-04-26T19:59:57.388Z,31.00
2019-04-26T20:02:35.821Z,30.90
2019-04-26T20:05:02.389Z,30.90
2019-04-26T20:07:33.358Z,30.90
2019-04-26T20:10:05.128Z,30.90
2019-04-26T20:12:38.117Z,30.80
2019-04-26T20:15:12.610Z,30.80
2019-04-26T20:17:42.017Z,30.80
2019-04-26T20:20:35.977Z,30.70
2019-04-26T20:23:07.855Z,30.70
2019-04-26T20:25:37.561Z,30.70
2019-04-26T20:28:08.343Z,30.70
2019-04-26T20:30:57.899Z,30.70
2019-04-26T20:33:31.321Z,30.60
2019-04-26T20:36:04.563Z,30.60
2019-04-26T20:38:53.597Z,30.60
2019-04-26T20:41:25.210Z,30.60
2019-04-26T20:44:04.952Z,30.60
2019-04-26T20:46:29.769Z,30.60
2019-04-26T20:49:01.463Z,30.50
2019-04-26T20:51:32.872Z,30.50
2019-04-26T20:54:03.870Z,30.50
2019-04-26T20:56:34.687Z,30.50
2019-04-26T20:59:05.609Z,30.40
2019-04-26T21:04:36.883Z,30.40
2019-04-26T21:06:59.255Z,30.40
2019-04-26T21:09:30.180Z,30.40
2019-04-26T21:12:01.890Z,30.40
2019-04-26T21:14:32.829Z,30.40
2019-04-26T21:17:03.655Z,30.40
2019-04-26T21:19:34.388Z,30.30
2019-04-26T21:22:05.153Z,30.30
2019-04-26T21:24:37.473Z,30.30
2019-04-26T21:27:09.694Z,30.30
2019-04-26T21:29:59.253Z,30.30
2019-04-26T21:32:33.273Z,30.30
2019-04-26T21:35:05.919Z,30.20
2019-04-26T21:37:38.175Z,30.20
2019-04-26T21:40:10.841Z,30.20
2019-04-26T21:42:43.459Z,30.20
2019-04-26T21:45:14.130Z,30.20
2019-04-26T21:47:45.028Z,30.20
2019-04-26T21:50:16.893Z,30.20
2019-04-26T21:52:49.710Z,30.10
2019-04-26T21:55:20.515Z,30.10
2019-04-26T21:57:51.188Z,30.10
2019-04-26T22:00:27.156Z,30.10
2019-04-26T22:02:57.856Z,30.10
2019-04-26T22:05:28.875Z,30.10
2019-04-26T22:07:59.782Z,30.10
2019-04-26T22:10:32.925Z,30.10
2019-04-26T22:13:06.387Z,30.10
2019-04-26T22:15:54.770Z,30.10
2019-04-26T22:18:30.094Z,30.10
2019-04-26T22:21:14.507Z,30.00
2019-04-26T22:23:56.139Z,30.00
2019-04-26T22:26:26.975Z,30.10
2019-04-26T22:29:00.141Z,30.00
2019-04-26T22:31:29.938Z,30.00
2019-04-26T22:34:01.363Z,30.00
2019-04-26T22:36:35.563Z,30.00
2019-04-26T22:39:07.748Z,30.00
2019-04-26T22:42:02.715Z,30.00
2019-04-26T22:44:36.076Z,29.90
2019-04-26T22:47:14.421Z,29.90
2019-04-26T22:49:45.440Z,29.90
2019-04-26T22:52:16.639Z,29.90
2019-04-26T22:54:47.488Z,29.90
2019-04-26T22:57:18.620Z,29.80
2019-04-26T22:59:50.473Z,29.80
2019-04-26T23:02:26.202Z,29.80
2019-04-26T23:04:56.089Z,29.80
2019-04-26T23:07:26.738Z,29.70
2019-04-26T23:09:57.553Z,29.70
2019-04-26T23:12:46.395Z,29.70
2019-04-26T23:15:18.601Z,29.70
2019-04-26T23:18:03.740Z,29.70
2019-04-26T23:20:34.274Z,29.70
2019-04-26T23:23:08.544Z,29.70
2019-04-26T23:25:38.467Z,29.60
2019-04-26T23:28:09.152Z,29.70
2019-04-26T23:30:40.003Z,29.70
2019-04-26T23:33:10.711Z,29.70
2019-04-26T23:35:43.872Z,29.70
2019-04-26T23:38:13.634Z,29.70
2019-04-26T23:40:44.312Z,29.70
2019-04-26T23:43:15.038Z,29.70
2019-04-26T23:45:48.353Z,29.70
2019-04-26T23:48:18.591Z,29.70
2019-04-26T23:50:50.983Z,29.80
2019-04-26T23:53:21.650Z,29.80
2019-04-26T23:55:52.387Z,29.80
2019-04-26T23:58:23.276Z,29.80
